sensor_id;sensor_type;location;lat;lon;timestamp;P1;durP1;ratioP1;P2;durP2;ratioP2
2522;SDS011;1272;53.332;9.860;2023-05-19T00:00:04;2.60;;;2.40;;
2522;SDS011;1272;53.332;9.860;2023-05-19T00:02:31;4.73;;;2.10;;
2522;SDS011;1272;53.332;9.860;2023-05-19T00:04:58;4.30;;;2.50;;
2522;SDS011;1272;53.332;9.860;2023-05-19T00:07:27;1.97;;;1.87;;
2522;SDS011;1272;53.332;9.860;2023-05-19T00:09:55;2.90;;;2.70;;
2522;SDS011;1272;53.332;9.860;2023-05-19T00:12:21;2.70;;;2.50;;
2522;SDS011;1272;53.332;9.860;2023-05-19T00:14:47;2.33;;;2.10;;
2522;SDS011;1272;53.332;9.860;2023-05-19T00:17:13;1.87;;;1.77;;
2522;SDS011;1272;53.332;9.860;2023-05-19T00:19:40;2.80;;;2.60;;
2522;SDS011;1272;53.332;9.860;2023-05-19T00:22:09;2.63;;;2.43;;
2522;SDS011;1272;53.332;9.860;2023-05-19T00:24:35;2.30;;;2.20;;
2522;SDS011;1272;53.332;9.860;2023-05-19T00:27:00;2.33;;;2.13;;
2522;SDS011;1272;53.332;9.860;2023-05-19T00:29:27;3.00;;;2.20;;
2522;SDS011;1272;53.332;9.860;2023-05-19T00:31:53;5.07;;;2.43;;
2522;SDS011;1272;53.332;9.860;2023-05-19T00:34:19;2.33;;;2.23;;
2522;SDS011;1272;53.332;9.860;2023-05-19T00:36:44;2.70;;;2.50;;
2522;SDS011;1272;53.332;9.860;2023-05-19T00:39:10;3.47;;;2.80;;
2522;SDS011;1272;53.332;9.860;2023-05-19T00:41:35;4.23;;;3.00;;
2522;SDS011;1272;53.332;9.860;2023-05-19T00:44:01;2.47;;;2.27;;
2522;SDS011;1272;53.332;9.860;2023-05-19T00:46:27;2.40;;;2.30;;
2522;SDS011;1272;53.332;9.860;2023-05-19T00:48:54;3.57;;;3.07;;
2522;SDS011;1272;53.332;9.860;2023-05-19T00:51:20;2.83;;;2.47;;
2522;SDS011;1272;53.332;9.860;2023-05-19T00:53:48;2.33;;;2.23;;
2522;SDS011;1272;53.332;9.860;2023-05-19T00:56:16;2.23;;;2.13;;
2522;SDS011;1272;53.332;9.860;2023-05-19T00:58:43;2.60;;;2.00;;
2522;SDS011;1272;53.332;9.860;2023-05-19T01:01:09;3.30;;;2.47;;
2522;SDS011;1272;53.332;9.860;2023-05-19T01:03:36;2.70;;;2.03;;
2522;SDS011;1272;53.332;9.860;2023-05-19T01:06:02;2.10;;;2.00;;
2522;SDS011;1272;53.332;9.860;2023-05-19T01:08:32;2.37;;;2.17;;
2522;SDS011;1272;53.332;9.860;2023-05-19T01:10:58;2.57;;;2.37;;
2522;SDS011;1272;53.332;9.860;2023-05-19T01:13:25;2.23;;;2.10;;
2522;SDS011;1272;53.332;9.860;2023-05-19T01:18:29;2.80;;;2.53;;
2522;SDS011;1272;53.332;9.860;2023-05-19T01:24:44;2.27;;;2.17;;
2522;SDS011;1272;53.332;9.860;2023-05-19T01:30:27;2.73;;;2.50;;
2522;SDS011;1272;53.332;9.860;2023-05-19T01:33:10;2.27;;;2.07;;
2522;SDS011;1272;53.332;9.860;2023-05-19T01:35:41;2.30;;;2.10;;
2522;SDS011;1272;53.332;9.860;2023-05-19T01:38:09;2.13;;;1.97;;
2522;SDS011;1272;53.332;9.860;2023-05-19T01:40:36;4.10;;;2.47;;
2522;SDS011;1272;53.332;9.860;2023-05-19T01:43:03;2.07;;;1.87;;
2522;SDS011;1272;53.332;9.860;2023-05-19T01:45:30;2.60;;;2.13;;
2522;SDS011;1272;53.332;9.860;2023-05-19T01:47:57;2.10;;;2.00;;
2522;SDS011;1272;53.332;9.860;2023-05-19T01:50:25;5.00;;;1.83;;
2522;SDS011;1272;53.332;9.860;2023-05-19T01:52:51;3.97;;;2.60;;
2522;SDS011;1272;53.332;9.860;2023-05-19T01:55:18;2.30;;;1.87;;
2522;SDS011;1272;53.332;9.860;2023-05-19T02:09:02;2.70;;;2.30;;
2522;SDS011;1272;53.332;9.860;2023-05-19T02:11:37;2.37;;;2.13;;
2522;SDS011;1272;53.332;9.860;2023-05-19T02:14:15;5.00;;;2.63;;
2522;SDS011;1272;53.332;9.860;2023-05-19T02:16:44;3.83;;;3.60;;
2522;SDS011;1272;53.332;9.860;2023-05-19T02:19:19;2.90;;;2.30;;
2522;SDS011;1272;53.332;9.860;2023-05-19T02:21:49;2.47;;;2.27;;
2522;SDS011;1272;53.332;9.860;2023-05-19T02:24:15;2.20;;;2.10;;
2522;SDS011;1272;53.332;9.860;2023-05-19T02:26:40;2.50;;;2.30;;
2522;SDS011;1272;53.332;9.860;2023-05-19T02:29:06;2.70;;;1.93;;
2522;SDS011;1272;53.332;9.860;2023-05-19T02:31:32;2.50;;;2.30;;
2522;SDS011;1272;53.332;9.860;2023-05-19T02:33:57;2.93;;;1.97;;
2522;SDS011;1272;53.332;9.860;2023-05-19T02:36:23;2.80;;;2.43;;
2522;SDS011;1272;53.332;9.860;2023-05-19T02:38:50;2.50;;;2.30;;
2522;SDS011;1272;53.332;9.860;2023-05-19T02:41:16;2.97;;;2.67;;
2522;SDS011;1272;53.332;9.860;2023-05-19T02:43:41;4.83;;;4.40;;
2522;SDS011;1272;53.332;9.860;2023-05-19T02:46:07;4.70;;;2.63;;
2522;SDS011;1272;53.332;9.860;2023-05-19T02:48:33;3.10;;;2.50;;
2522;SDS011;1272;53.332;9.860;2023-05-19T02:50:58;2.37;;;2.10;;
2522;SDS011;1272;53.332;9.860;2023-05-19T02:53:24;2.67;;;2.47;;
2522;SDS011;1272;53.332;9.860;2023-05-19T02:55:50;5.57;;;2.50;;
2522;SDS011;1272;53.332;9.860;2023-05-19T02:58:16;2.50;;;2.30;;
2522;SDS011;1272;53.332;9.860;2023-05-19T03:00:43;2.80;;;2.50;;
2522;SDS011;1272;53.332;9.860;2023-05-19T03:03:09;4.37;;;2.90;;
2522;SDS011;1272;53.332;9.860;2023-05-19T03:05:35;2.53;;;2.33;;
2522;SDS011;1272;53.332;9.860;2023-05-19T03:08:07;2.77;;;2.67;;
2522;SDS011;1272;53.332;9.860;2023-05-19T03:10:33;2.73;;;2.43;;
2522;SDS011;1272;53.332;9.860;2023-05-19T03:13:00;3.00;;;2.80;;
2522;SDS011;1272;53.332;9.860;2023-05-19T03:15:25;2.93;;;2.63;;
2522;SDS011;1272;53.332;9.860;2023-05-19T03:17:51;2.80;;;2.47;;
2522;SDS011;1272;53.332;9.860;2023-05-19T03:20:17;4.40;;;3.20;;
2522;SDS011;1272;53.332;9.860;2023-05-19T03:22:43;3.90;;;2.70;;
2522;SDS011;1272;53.332;9.860;2023-05-19T03:25:09;4.50;;;2.47;;
2522;SDS011;1272;53.332;9.860;2023-05-19T03:27:34;3.30;;;2.93;;
2522;SDS011;1272;53.332;9.860;2023-05-19T03:30:00;2.37;;;2.20;;
2522;SDS011;1272;53.332;9.860;2023-05-19T03:32:26;3.97;;;3.20;;
2522;SDS011;1272;53.332;9.860;2023-05-19T03:34:51;5.23;;;3.53;;
2522;SDS011;1272;53.332;9.860;2023-05-19T03:37:17;3.77;;;3.37;;
2522;SDS011;1272;53.332;9.860;2023-05-19T03:39:43;3.77;;;3.47;;
2522;SDS011;1272;53.332;9.860;2023-05-19T03:42:08;2.63;;;2.53;;
2522;SDS011;1272;53.332;9.860;2023-05-19T03:44:34;4.57;;;2.73;;
2522;SDS011;1272;53.332;9.860;2023-05-19T03:47:00;2.73;;;2.53;;
2522;SDS011;1272;53.332;9.860;2023-05-19T03:49:25;2.33;;;2.13;;
2522;SDS011;1272;53.332;9.860;2023-05-19T03:51:51;3.03;;;2.80;;
2522;SDS011;1272;53.332;9.860;2023-05-19T03:54:17;3.07;;;2.80;;
2522;SDS011;1272;53.332;9.860;2023-05-19T03:56:43;3.97;;;2.60;;
2522;SDS011;1272;53.332;9.860;2023-05-19T03:59:08;2.87;;;2.63;;
2522;SDS011;1272;53.332;9.860;2023-05-19T04:01:37;4.60;;;2.80;;
2522;SDS011;1272;53.332;9.860;2023-05-19T04:04:03;2.87;;;2.57;;
2522;SDS011;1272;53.332;9.860;2023-05-19T04:06:28;3.30;;;2.80;;
2522;SDS011;1272;53.332;9.860;2023-05-19T04:08:54;3.83;;;3.40;;
2522;SDS011;1272;53.332;9.860;2023-05-19T04:11:20;2.50;;;2.30;;
2522;SDS011;1272;53.332;9.860;2023-05-19T04:13:46;6.77;;;2.43;;
2522;SDS011;1272;53.332;9.860;2023-05-19T04:16:12;3.27;;;2.70;;
2522;SDS011;1272;53.332;9.860;2023-05-19T04:18:37;3.13;;;2.50;;
2522;SDS011;1272;53.332;9.860;2023-05-19T04:21:03;7.77;;;3.10;;
2522;SDS011;1272;53.332;9.860;2023-05-19T04:23:29;2.57;;;2.43;;
2522;SDS011;1272;53.332;9.860;2023-05-19T04:25:55;5.70;;;2.80;;
2522;SDS011;1272;53.332;9.860;2023-05-19T04:28:22;3.70;;;2.77;;
2522;SDS011;1272;53.332;9.860;2023-05-19T04:30:48;4.20;;;3.40;;
2522;SDS011;1272;53.332;9.860;2023-05-19T04:33:14;6.10;;;3.57;;
2522;SDS011;1272;53.332;9.860;2023-05-19T04:35:40;2.63;;;2.43;;
2522;SDS011;1272;53.332;9.860;2023-05-19T04:38:07;3.83;;;2.53;;
2522;SDS011;1272;53.332;9.860;2023-05-19T04:40:34;4.50;;;3.20;;
2522;SDS011;1272;53.332;9.860;2023-05-19T04:42:59;3.57;;;2.93;;
2522;SDS011;1272;53.332;9.860;2023-05-19T04:45:26;3.23;;;3.03;;
2522;SDS011;1272;53.332;9.860;2023-05-19T04:47:52;3.60;;;2.77;;
2522;SDS011;1272;53.332;9.860;2023-05-19T04:50:21;3.07;;;2.77;;
2522;SDS011;1272;53.332;9.860;2023-05-19T04:52:47;4.77;;;2.70;;
2522;SDS011;1272;53.332;9.860;2023-05-19T04:55:13;4.63;;;2.77;;
2522;SDS011;1272;53.332;9.860;2023-05-19T04:57:39;2.27;;;2.00;;
2522;SDS011;1272;53.332;9.860;2023-05-19T05:00:05;2.90;;;2.70;;
2522;SDS011;1272;53.332;9.860;2023-05-19T05:02:33;4.20;;;3.00;;
2522;SDS011;1272;53.332;9.860;2023-05-19T05:04:59;4.87;;;3.57;;
2522;SDS011;1272;53.332;9.860;2023-05-19T05:07:25;4.10;;;2.83;;
2522;SDS011;1272;53.332;9.860;2023-05-19T05:09:53;2.50;;;2.30;;
2522;SDS011;1272;53.332;9.860;2023-05-19T05:12:19;4.30;;;3.73;;
2522;SDS011;1272;53.332;9.860;2023-05-19T05:14:46;4.03;;;3.37;;
2522;SDS011;1272;53.332;9.860;2023-05-19T05:17:12;6.70;;;3.50;;
2522;SDS011;1272;53.332;9.860;2023-05-19T05:19:38;6.37;;;3.37;;
2522;SDS011;1272;53.332;9.860;2023-05-19T05:22:05;3.43;;;3.13;;
2522;SDS011;1272;53.332;9.860;2023-05-19T05:24:31;2.77;;;2.57;;
2522;SDS011;1272;53.332;9.860;2023-05-19T05:26:57;5.10;;;3.20;;
2522;SDS011;1272;53.332;9.860;2023-05-19T05:29:23;4.07;;;3.60;;
2522;SDS011;1272;53.332;9.860;2023-05-19T05:31:49;4.07;;;3.13;;
2522;SDS011;1272;53.332;9.860;2023-05-19T05:34:15;4.40;;;3.50;;
2522;SDS011;1272;53.332;9.860;2023-05-19T05:36:41;4.13;;;3.73;;
2522;SDS011;1272;53.332;9.860;2023-05-19T05:39:07;3.43;;;3.13;;
2522;SDS011;1272;53.332;9.860;2023-05-19T05:41:32;3.63;;;3.30;;
2522;SDS011;1272;53.332;9.860;2023-05-19T05:44:01;4.93;;;3.50;;
2522;SDS011;1272;53.332;9.860;2023-05-19T05:46:27;4.70;;;3.40;;
2522;SDS011;1272;53.332;9.860;2023-05-19T05:48:53;7.23;;;4.80;;
2522;SDS011;1272;53.332;9.860;2023-05-19T05:51:22;4.43;;;2.87;;
2522;SDS011;1272;53.332;9.860;2023-05-19T05:53:52;2.93;;;2.63;;
2522;SDS011;1272;53.332;9.860;2023-05-19T05:56:18;4.90;;;2.63;;
2522;SDS011;1272;53.332;9.860;2023-05-19T05:58:45;3.83;;;2.70;;
2522;SDS011;1272;53.332;9.860;2023-05-19T06:01:11;2.57;;;2.17;;
2522;SDS011;1272;53.332;9.860;2023-05-19T06:03:38;2.67;;;2.47;;
2522;SDS011;1272;53.332;9.860;2023-05-19T06:06:05;3.53;;;2.50;;
2522;SDS011;1272;53.332;9.860;2023-05-19T06:08:31;2.57;;;2.40;;
2522;SDS011;1272;53.332;9.860;2023-05-19T06:10:57;3.80;;;2.80;;
2522;SDS011;1272;53.332;9.860;2023-05-19T06:13:23;4.07;;;3.10;;
2522;SDS011;1272;53.332;9.860;2023-05-19T06:15:50;3.60;;;3.30;;
2522;SDS011;1272;53.332;9.860;2023-05-19T06:18:16;3.87;;;2.80;;
2522;SDS011;1272;53.332;9.860;2023-05-19T06:20:42;2.77;;;2.57;;
2522;SDS011;1272;53.332;9.860;2023-05-19T06:23:07;3.63;;;3.33;;
2522;SDS011;1272;53.332;9.860;2023-05-19T06:25:33;6.20;;;2.80;;
2522;SDS011;1272;53.332;9.860;2023-05-19T06:27:59;2.87;;;2.47;;
2522;SDS011;1272;53.332;9.860;2023-05-19T06:30:25;2.97;;;2.60;;
2522;SDS011;1272;53.332;9.860;2023-05-19T06:32:50;2.73;;;2.53;;
2522;SDS011;1272;53.332;9.860;2023-05-19T06:35:16;2.90;;;2.70;;
2522;SDS011;1272;53.332;9.860;2023-05-19T06:37:42;2.50;;;2.03;;
2522;SDS011;1272;53.332;9.860;2023-05-19T06:40:07;2.60;;;2.40;;
2522;SDS011;1272;53.332;9.860;2023-05-19T06:42:34;3.50;;;2.70;;
2522;SDS011;1272;53.332;9.860;2023-05-19T06:45:00;3.27;;;2.20;;
2522;SDS011;1272;53.332;9.860;2023-05-19T06:47:26;2.40;;;2.10;;
2522;SDS011;1272;53.332;9.860;2023-05-19T06:49:51;1.93;;;1.83;;
2522;SDS011;1272;53.332;9.860;2023-05-19T06:52:19;3.93;;;2.57;;
2522;SDS011;1272;53.332;9.860;2023-05-19T06:54:45;2.87;;;2.63;;
2522;SDS011;1272;53.332;9.860;2023-05-19T06:57:12;4.27;;;3.20;;
2522;SDS011;1272;53.332;9.860;2023-05-19T06:59:38;8.03;;;2.60;;
2522;SDS011;1272;53.332;9.860;2023-05-19T07:02:08;2.03;;;1.83;;
2522;SDS011;1272;53.332;9.860;2023-05-19T07:04:34;1.80;;;1.57;;
2522;SDS011;1272;53.332;9.860;2023-05-19T07:07:00;2.93;;;2.50;;
2522;SDS011;1272;53.332;9.860;2023-05-19T07:09:26;4.73;;;2.70;;
2522;SDS011;1272;53.332;9.860;2023-05-19T07:11:51;2.40;;;1.40;;
2522;SDS011;1272;53.332;9.860;2023-05-19T07:14:17;1.70;;;1.37;;
2522;SDS011;1272;53.332;9.860;2023-05-19T07:16:44;2.77;;;1.60;;
2522;SDS011;1272;53.332;9.860;2023-05-19T07:19:10;6.43;;;4.20;;
2522;SDS011;1272;53.332;9.860;2023-05-19T07:21:36;5.87;;;2.00;;
2522;SDS011;1272;53.332;9.860;2023-05-19T07:24:02;1.53;;;1.43;;
2522;SDS011;1272;53.332;9.860;2023-05-19T07:26:27;2.40;;;1.80;;
2522;SDS011;1272;53.332;9.860;2023-05-19T07:28:53;1.63;;;1.53;;
2522;SDS011;1272;53.332;9.860;2023-05-19T07:31:19;2.80;;;2.13;;
2522;SDS011;1272;53.332;9.860;2023-05-19T07:33:45;3.70;;;1.80;;
2522;SDS011;1272;53.332;9.860;2023-05-19T07:36:11;3.00;;;1.80;;
2522;SDS011;1272;53.332;9.860;2023-05-19T07:38:36;8.90;;;2.30;;
2522;SDS011;1272;53.332;9.860;2023-05-19T07:41:05;4.13;;;1.93;;
2522;SDS011;1272;53.332;9.860;2023-05-19T07:43:31;3.13;;;1.90;;
2522;SDS011;1272;53.332;9.860;2023-05-19T07:45:57;1.73;;;1.50;;
2522;SDS011;1272;53.332;9.860;2023-05-19T07:48:22;1.73;;;1.50;;
2522;SDS011;1272;53.332;9.860;2023-05-19T07:50:50;3.60;;;1.83;;
2522;SDS011;1272;53.332;9.860;2023-05-19T07:53:17;2.63;;;1.97;;
2522;SDS011;1272;53.332;9.860;2023-05-19T07:55:43;6.53;;;2.83;;
2522;SDS011;1272;53.332;9.860;2023-05-19T07:58:09;1.67;;;1.57;;
2522;SDS011;1272;53.332;9.860;2023-05-19T08:00:34;10.63;;;1.50;;
2522;SDS011;1272;53.332;9.860;2023-05-19T08:03:00;2.43;;;1.33;;
2522;SDS011;1272;53.332;9.860;2023-05-19T08:05:27;2.37;;;1.57;;
2522;SDS011;1272;53.332;9.860;2023-05-19T08:07:53;3.30;;;1.83;;
2522;SDS011;1272;53.332;9.860;2023-05-19T08:10:20;2.00;;;1.90;;
2522;SDS011;1272;53.332;9.860;2023-05-19T08:12:46;8.93;;;1.80;;
2522;SDS011;1272;53.332;9.860;2023-05-19T08:15:12;4.13;;;1.80;;
2522;SDS011;1272;53.332;9.860;2023-05-19T08:17:38;4.83;;;2.07;;
2522;SDS011;1272;53.332;9.860;2023-05-19T08:20:04;1.40;;;1.30;;
2522;SDS011;1272;53.332;9.860;2023-05-19T08:22:32;2.23;;;1.60;;
2522;SDS011;1272;53.332;9.860;2023-05-19T08:24:58;1.37;;;1.27;;
2522;SDS011;1272;53.332;9.860;2023-05-19T08:27:23;1.90;;;1.13;;
2522;SDS011;1272;53.332;9.860;2023-05-19T08:29:49;2.70;;;1.27;;
2522;SDS011;1272;53.332;9.860;2023-05-19T08:32:15;3.17;;;1.27;;
2522;SDS011;1272;53.332;9.860;2023-05-19T08:34:41;6.90;;;1.67;;
2522;SDS011;1272;53.332;9.860;2023-05-19T08:37:07;1.70;;;1.60;;
2522;SDS011;1272;53.332;9.860;2023-05-19T08:39:32;2.07;;;1.30;;
2522;SDS011;1272;53.332;9.860;2023-05-19T08:41:59;7.30;;;1.80;;
2522;SDS011;1272;53.332;9.860;2023-05-19T08:44:25;2.70;;;1.47;;
2522;SDS011;1272;53.332;9.860;2023-05-19T08:46:53;5.97;;;1.70;;
2522;SDS011;1272;53.332;9.860;2023-05-19T08:49:25;1.83;;;1.47;;
2522;SDS011;1272;53.332;9.860;2023-05-19T08:51:58;3.73;;;1.43;;
2522;SDS011;1272;53.332;9.860;2023-05-19T08:54:31;6.60;;;1.80;;
2522;SDS011;1272;53.332;9.860;2023-05-19T08:57:02;2.13;;;1.60;;
2522;SDS011;1272;53.332;9.860;2023-05-19T08:59:29;4.00;;;1.43;;
2522;SDS011;1272;53.332;9.860;2023-05-19T09:01:55;4.00;;;1.83;;
2522;SDS011;1272;53.332;9.860;2023-05-19T09:04:21;1.63;;;1.30;;
2522;SDS011;1272;53.332;9.860;2023-05-19T09:06:49;2.50;;;2.00;;
2522;SDS011;1272;53.332;9.860;2023-05-19T09:09:15;3.30;;;1.60;;
2522;SDS011;1272;53.332;9.860;2023-05-19T09:11:44;4.50;;;1.90;;
2522;SDS011;1272;53.332;9.860;2023-05-19T09:14:10;1.23;;;1.13;;
2522;SDS011;1272;53.332;9.860;2023-05-19T09:16:36;6.20;;;1.77;;
2522;SDS011;1272;53.332;9.860;2023-05-19T09:19:02;2.40;;;1.23;;
2522;SDS011;1272;53.332;9.860;2023-05-19T09:21:31;2.27;;;1.43;;
2522;SDS011;1272;53.332;9.860;2023-05-19T09:23:57;1.70;;;1.60;;
2522;SDS011;1272;53.332;9.860;2023-05-19T09:26:40;1.40;;;1.20;;
2522;SDS011;1272;53.332;9.860;2023-05-19T09:29:13;2.77;;;1.30;;
2522;SDS011;1272;53.332;9.860;2023-05-19T09:31:47;5.00;;;1.40;;
2522;SDS011;1272;53.332;9.860;2023-05-19T09:34:14;4.50;;;2.10;;
2522;SDS011;1272;53.332;9.860;2023-05-19T09:36:40;4.70;;;1.40;;
2522;SDS011;1272;53.332;9.860;2023-05-19T09:39:15;4.23;;;1.77;;
2522;SDS011;1272;53.332;9.860;2023-05-19T09:41:42;3.30;;;1.50;;
2522;SDS011;1272;53.332;9.860;2023-05-19T09:44:12;2.23;;;1.60;;
2522;SDS011;1272;53.332;9.860;2023-05-19T09:46:50;2.90;;;1.40;;
2522;SDS011;1272;53.332;9.860;2023-05-19T09:49:21;2.13;;;1.30;;
2522;SDS011;1272;53.332;9.860;2023-05-19T09:51:58;2.13;;;1.63;;
2522;SDS011;1272;53.332;9.860;2023-05-19T09:54:26;2.17;;;1.13;;
2522;SDS011;1272;53.332;9.860;2023-05-19T09:57:00;2.20;;;1.33;;
2522;SDS011;1272;53.332;9.860;2023-05-19T09:59:27;4.27;;;1.37;;
2522;SDS011;1272;53.332;9.860;2023-05-19T10:01:54;3.90;;;1.30;;
2522;SDS011;1272;53.332;9.860;2023-05-19T10:04:25;9.63;;;1.60;;
2522;SDS011;1272;53.332;9.860;2023-05-19T10:06:55;2.20;;;1.60;;
2522;SDS011;1272;53.332;9.860;2023-05-19T10:09:26;1.97;;;1.40;;
2522;SDS011;1272;53.332;9.860;2023-05-19T10:11:56;4.60;;;1.40;;
2522;SDS011;1272;53.332;9.860;2023-05-19T10:14:26;2.70;;;1.43;;
2522;SDS011;1272;53.332;9.860;2023-05-19T10:16:56;1.93;;;1.60;;
2522;SDS011;1272;53.332;9.860;2023-05-19T10:19:24;1.93;;;1.10;;
2522;SDS011;1272;53.332;9.860;2023-05-19T10:21:50;4.40;;;1.37;;
2522;SDS011;1272;53.332;9.860;2023-05-19T10:24:17;2.07;;;1.53;;
2522;SDS011;1272;53.332;9.860;2023-05-19T10:26:44;1.73;;;1.40;;
2522;SDS011;1272;53.332;9.860;2023-05-19T10:29:16;2.10;;;1.20;;
2522;SDS011;1272;53.332;9.860;2023-05-19T10:31:45;3.93;;;1.73;;
2522;SDS011;1272;53.332;9.860;2023-05-19T10:39:18;4.50;;;1.73;;
2522;SDS011;1272;53.332;9.860;2023-05-19T10:42:03;0.90;;;0.90;;
2522;SDS011;1272;53.332;9.860;2023-05-19T10:45:08;2.00;;;1.27;;
2522;SDS011;1272;53.332;9.860;2023-05-19T10:47:39;2.03;;;1.17;;
2522;SDS011;1272;53.332;9.860;2023-05-19T10:50:06;3.17;;;1.50;;
2522;SDS011;1272;53.332;9.860;2023-05-19T10:52:37;2.03;;;1.53;;
2522;SDS011;1272;53.332;9.860;2023-05-19T10:55:06;1.40;;;1.30;;
2522;SDS011;1272;53.332;9.860;2023-05-19T10:57:32;1.93;;;1.40;;
2522;SDS011;1272;53.332;9.860;2023-05-19T11:00:01;1.97;;;1.20;;
2522;SDS011;1272;53.332;9.860;2023-05-19T11:02:47;2.23;;;1.20;;
2522;SDS011;1272;53.332;9.860;2023-05-19T11:05:22;2.63;;;1.53;;
2522;SDS011;1272;53.332;9.860;2023-05-19T11:07:54;1.77;;;1.10;;
2522;SDS011;1272;53.332;9.860;2023-05-19T11:10:24;1.20;;;1.10;;
2522;SDS011;1272;53.332;9.860;2023-05-19T11:12:50;2.53;;;1.80;;
2522;SDS011;1272;53.332;9.860;2023-05-19T11:15:16;1.23;;;1.13;;
2522;SDS011;1272;53.332;9.860;2023-05-19T11:17:44;1.60;;;1.40;;
2522;SDS011;1272;53.332;9.860;2023-05-19T11:20:19;2.20;;;1.20;;
2522;SDS011;1272;53.332;9.860;2023-05-19T11:25:46;1.50;;;1.40;;
2522;SDS011;1272;53.332;9.860;2023-05-19T11:28:19;2.50;;;1.47;;
2522;SDS011;1272;53.332;9.860;2023-05-19T11:30:51;1.70;;;1.00;;
2522;SDS011;1272;53.332;9.860;2023-05-19T11:33:19;4.67;;;1.47;;
2522;SDS011;1272;53.332;9.860;2023-05-19T11:35:46;2.80;;;1.40;;
2522;SDS011;1272;53.332;9.860;2023-05-19T11:38:13;1.60;;;1.30;;
2522;SDS011;1272;53.332;9.860;2023-05-19T11:40:40;1.20;;;1.20;;
2522;SDS011;1272;53.332;9.860;2023-05-19T11:43:07;1.90;;;1.20;;
2522;SDS011;1272;53.332;9.860;2023-05-19T11:45:33;2.87;;;1.87;;
2522;SDS011;1272;53.332;9.860;2023-05-19T11:47:59;1.50;;;1.40;;
2522;SDS011;1272;53.332;9.860;2023-05-19T11:50:26;1.90;;;1.30;;
2522;SDS011;1272;53.332;9.860;2023-05-19T11:52:53;1.43;;;1.10;;
2522;SDS011;1272;53.332;9.860;2023-05-19T11:55:19;5.03;;;1.50;;
2522;SDS011;1272;53.332;9.860;2023-05-19T11:58:02;2.10;;;1.20;;
2522;SDS011;1272;53.332;9.860;2023-05-19T12:00:28;1.60;;;1.50;;
2522;SDS011;1272;53.332;9.860;2023-05-19T12:03:01;10.13;;;1.40;;
2522;SDS011;1272;53.332;9.860;2023-05-19T12:05:27;2.23;;;1.73;;
2522;SDS011;1272;53.332;9.860;2023-05-19T12:07:53;1.67;;;1.57;;
2522;SDS011;1272;53.332;9.860;2023-05-19T12:10:23;1.47;;;1.10;;
2522;SDS011;1272;53.332;9.860;2023-05-19T12:12:50;1.50;;;1.40;;
2522;SDS011;1272;53.332;9.860;2023-05-19T12:15:19;1.40;;;1.30;;
2522;SDS011;1272;53.332;9.860;2023-05-19T12:17:58;1.20;;;1.20;;
2522;SDS011;1272;53.332;9.860;2023-05-19T12:20:26;4.53;;;1.30;;
2522;SDS011;1272;53.332;9.860;2023-05-19T12:22:56;2.10;;;1.10;;
2522;SDS011;1272;53.332;9.860;2023-05-19T12:25:23;1.60;;;1.40;;
2522;SDS011;1272;53.332;9.860;2023-05-19T12:27:49;4.93;;;1.47;;
2522;SDS011;1272;53.332;9.860;2023-05-19T12:30:16;1.60;;;1.50;;
2522;SDS011;1272;53.332;9.860;2023-05-19T12:32:43;2.37;;;1.50;;
2522;SDS011;1272;53.332;9.860;2023-05-19T12:35:10;1.63;;;1.20;;
2522;SDS011;1272;53.332;9.860;2023-05-19T12:37:35;1.63;;;1.53;;
2522;SDS011;1272;53.332;9.860;2023-05-19T12:40:05;1.50;;;1.40;;
2522;SDS011;1272;53.332;9.860;2023-05-19T12:42:31;5.17;;;1.27;;
2522;SDS011;1272;53.332;9.860;2023-05-19T12:44:59;2.90;;;1.30;;
2522;SDS011;1272;53.332;9.860;2023-05-19T12:47:30;1.50;;;1.27;;
2522;SDS011;1272;53.332;9.860;2023-05-19T12:52:30;1.80;;;1.60;;
2522;SDS011;1272;53.332;9.860;2023-05-19T12:54:59;1.53;;;1.43;;
2522;SDS011;1272;53.332;9.860;2023-05-19T12:57:30;2.60;;;1.30;;
2522;SDS011;1272;53.332;9.860;2023-05-19T13:00:05;3.10;;;1.57;;
2522;SDS011;1272;53.332;9.860;2023-05-19T13:02:35;2.50;;;1.50;;
2522;SDS011;1272;53.332;9.860;2023-05-19T13:05:18;2.70;;;1.30;;
2522;SDS011;1272;53.332;9.860;2023-05-19T13:08:18;1.40;;;1.30;;
2522;SDS011;1272;53.332;9.860;2023-05-19T13:10:38;3.77;;;1.63;;
2522;SDS011;1272;53.332;9.860;2023-05-19T13:13:05;2.30;;;1.47;;
2522;SDS011;1272;53.332;9.860;2023-05-19T13:15:32;1.57;;;1.33;;
2522;SDS011;1272;53.332;9.860;2023-05-19T13:17:59;3.37;;;1.40;;
2522;SDS011;1272;53.332;9.860;2023-05-19T13:20:26;2.30;;;1.60;;
2522;SDS011;1272;53.332;9.860;2023-05-19T13:22:51;4.20;;;1.70;;
2522;SDS011;1272;53.332;9.860;2023-05-19T13:25:17;3.47;;;1.40;;
2522;SDS011;1272;53.332;9.860;2023-05-19T13:27:43;3.10;;;1.33;;
2522;SDS011;1272;53.332;9.860;2023-05-19T13:30:10;3.17;;;1.30;;
2522;SDS011;1272;53.332;9.860;2023-05-19T13:32:36;1.60;;;1.47;;
2522;SDS011;1272;53.332;9.860;2023-05-19T13:35:02;6.93;;;1.40;;
2522;SDS011;1272;53.332;9.860;2023-05-19T13:37:28;3.43;;;1.53;;
2522;SDS011;1272;53.332;9.860;2023-05-19T13:39:54;1.90;;;1.30;;
2522;SDS011;1272;53.332;9.860;2023-05-19T13:42:21;1.50;;;1.40;;
2522;SDS011;1272;53.332;9.860;2023-05-19T13:44:47;2.73;;;1.33;;
2522;SDS011;1272;53.332;9.860;2023-05-19T13:47:13;3.30;;;1.53;;
2522;SDS011;1272;53.332;9.860;2023-05-19T13:49:38;3.00;;;1.30;;
2522;SDS011;1272;53.332;9.860;2023-05-19T13:52:05;2.90;;;1.43;;
2522;SDS011;1272;53.332;9.860;2023-05-19T13:54:31;3.70;;;1.80;;
2522;SDS011;1272;53.332;9.860;2023-05-19T13:56:57;1.83;;;1.40;;
2522;SDS011;1272;53.332;9.860;2023-05-19T13:59:26;1.77;;;1.13;;
2522;SDS011;1272;53.332;9.860;2023-05-19T14:01:52;2.23;;;1.80;;
2522;SDS011;1272;53.332;9.860;2023-05-19T14:04:18;1.70;;;1.60;;
2522;SDS011;1272;53.332;9.860;2023-05-19T14:06:44;2.07;;;1.30;;
2522;SDS011;1272;53.332;9.860;2023-05-19T14:09:10;4.37;;;1.70;;
2522;SDS011;1272;53.332;9.860;2023-05-19T14:11:36;1.60;;;1.50;;
2522;SDS011;1272;53.332;9.860;2023-05-19T14:14:02;1.43;;;1.33;;
2522;SDS011;1272;53.332;9.860;2023-05-19T14:16:28;1.30;;;1.20;;
2522;SDS011;1272;53.332;9.860;2023-05-19T14:18:54;5.07;;;1.57;;
2522;SDS011;1272;53.332;9.860;2023-05-19T14:21:20;1.20;;;1.10;;
2522;SDS011;1272;53.332;9.860;2023-05-19T14:23:46;1.90;;;1.80;;
2522;SDS011;1272;53.332;9.860;2023-05-19T14:26:12;1.63;;;1.33;;
2522;SDS011;1272;53.332;9.860;2023-05-19T14:28:38;1.53;;;1.27;;
2522;SDS011;1272;53.332;9.860;2023-05-19T14:31:03;1.57;;;1.47;;
2522;SDS011;1272;53.332;9.860;2023-05-19T14:33:30;1.50;;;1.40;;
2522;SDS011;1272;53.332;9.860;2023-05-19T14:35:55;1.30;;;1.20;;
2522;SDS011;1272;53.332;9.860;2023-05-19T14:38:24;1.67;;;1.10;;
2522;SDS011;1272;53.332;9.860;2023-05-19T14:40:50;1.33;;;1.20;;
2522;SDS011;1272;53.332;9.860;2023-05-19T14:43:16;4.90;;;1.30;;
2522;SDS011;1272;53.332;9.860;2023-05-19T14:45:41;1.90;;;1.40;;
2522;SDS011;1272;53.332;9.860;2023-05-19T14:48:08;2.50;;;1.23;;
2522;SDS011;1272;53.332;9.860;2023-05-19T14:50:37;3.53;;;1.40;;
2522;SDS011;1272;53.332;9.860;2023-05-19T14:53:02;5.43;;;1.37;;
2522;SDS011;1272;53.332;9.860;2023-05-19T14:55:28;1.93;;;1.40;;
2522;SDS011;1272;53.332;9.860;2023-05-19T14:57:54;2.23;;;1.40;;
2522;SDS011;1272;53.332;9.860;2023-05-19T15:00:19;2.13;;;1.80;;
2522;SDS011;1272;53.332;9.860;2023-05-19T15:02:45;2.23;;;1.70;;
2522;SDS011;1272;53.332;9.860;2023-05-19T15:05:11;2.40;;;1.60;;
2522;SDS011;1272;53.332;9.860;2023-05-19T15:07:37;1.90;;;1.80;;
2522;SDS011;1272;53.332;9.860;2023-05-19T15:10:03;1.67;;;1.57;;
2522;SDS011;1272;53.332;9.860;2023-05-19T15:12:29;2.30;;;2.03;;
2522;SDS011;1272;53.332;9.860;2023-05-19T15:14:55;4.93;;;1.80;;
2522;SDS011;1272;53.332;9.860;2023-05-19T15:17:21;3.70;;;1.77;;
2522;SDS011;1272;53.332;9.860;2023-05-19T15:19:46;1.90;;;1.70;;
2522;SDS011;1272;53.332;9.860;2023-05-19T15:22:12;3.57;;;1.40;;
2522;SDS011;1272;53.332;9.860;2023-05-19T15:24:38;1.80;;;1.70;;
2522;SDS011;1272;53.332;9.860;2023-05-19T15:27:05;3.27;;;1.70;;
2522;SDS011;1272;53.332;9.860;2023-05-19T15:29:31;1.50;;;1.40;;
2522;SDS011;1272;53.332;9.860;2023-05-19T15:31:57;3.27;;;1.80;;
2522;SDS011;1272;53.332;9.860;2023-05-19T15:34:23;12.30;;;3.10;;
2522;SDS011;1272;53.332;9.860;2023-05-19T15:36:48;1.27;;;1.13;;
2522;SDS011;1272;53.332;9.860;2023-05-19T15:39:14;2.20;;;1.53;;
2522;SDS011;1272;53.332;9.860;2023-05-19T15:41:40;1.60;;;1.50;;
2522;SDS011;1272;53.332;9.860;2023-05-19T15:44:05;2.60;;;1.50;;
2522;SDS011;1272;53.332;9.860;2023-05-19T15:46:32;3.43;;;1.47;;